sensor_id;sensor_type;location;lat;lon;timestamp;P1;durP1;ratioP1;P2;durP2;ratioP2
18316;SDS011;9284;52.298;21.164;2023-06-04T00:02:04;4.70;;;2.53;;
18316;SDS011;9284;52.298;21.164;2023-06-04T00:04:58;5.50;;;2.40;;
18316;SDS011;9284;52.298;21.164;2023-06-04T00:07:34;5.60;;;2.70;;
18316;SDS011;9284;52.298;21.164;2023-06-04T00:13:28;6.10;;;2.83;;
18316;SDS011;9284;52.298;21.164;2023-06-04T00:16:04;4.60;;;2.87;;
18316;SDS011;9284;52.298;21.164;2023-06-04T00:18:38;5.03;;;2.43;;
18316;SDS011;9284;52.298;21.164;2023-06-04T00:21:24;4.97;;;2.73;;
18316;SDS011;9284;52.298;21.164;2023-06-04T00:24:23;5.57;;;2.97;;
18316;SDS011;9284;52.298;21.164;2023-06-04T00:26:56;6.60;;;3.27;;
18316;SDS011;9284;52.298;21.164;2023-06-04T00:32:26;5.53;;;2.70;;
18316;SDS011;9284;52.298;21.164;2023-06-04T00:34:57;4.03;;;2.50;;
18316;SDS011;9284;52.298;21.164;2023-06-04T00:37:28;5.70;;;2.60;;
18316;SDS011;9284;52.298;21.164;2023-06-04T00:40:09;5.77;;;2.70;;
18316;SDS011;9284;52.298;21.164;2023-06-04T00:42:45;4.97;;;2.20;;
18316;SDS011;9284;52.298;21.164;2023-06-04T00:45:31;8.67;;;3.20;;
18316;SDS011;9284;52.298;21.164;2023-06-04T00:48:05;6.13;;;2.73;;
18316;SDS011;9284;52.298;21.164;2023-06-04T00:50:48;6.93;;;2.60;;
18316;SDS011;9284;52.298;21.164;2023-06-04T00:53:42;5.80;;;2.70;;
18316;SDS011;9284;52.298;21.164;2023-06-04T00:56:15;6.03;;;2.73;;
18316;SDS011;9284;52.298;21.164;2023-06-04T00:58:50;5.67;;;2.80;;
18316;SDS011;9284;52.298;21.164;2023-06-04T01:01:26;7.87;;;2.83;;
18316;SDS011;9284;52.298;21.164;2023-06-04T01:04:01;4.63;;;2.60;;
18316;SDS011;9284;52.298;21.164;2023-06-04T01:06:43;5.70;;;2.63;;
18316;SDS011;9284;52.298;21.164;2023-06-04T01:09:26;3.27;;;2.40;;
18316;SDS011;9284;52.298;21.164;2023-06-04T01:12:24;7.23;;;3.10;;
18316;SDS011;9284;52.298;21.164;2023-06-04T01:17:57;5.17;;;2.70;;
18316;SDS011;9284;52.298;21.164;2023-06-04T01:20:43;6.77;;;2.90;;
18316;SDS011;9284;52.298;21.164;2023-06-04T01:23:27;6.47;;;2.70;;
18316;SDS011;9284;52.298;21.164;2023-06-04T01:26:49;4.73;;;2.77;;
18316;SDS011;9284;52.298;21.164;2023-06-04T01:29:56;4.97;;;2.53;;
18316;SDS011;9284;52.298;21.164;2023-06-04T01:32:27;7.07;;;3.17;;
18316;SDS011;9284;52.298;21.164;2023-06-04T01:35:02;5.20;;;2.73;;
18316;SDS011;9284;52.298;21.164;2023-06-04T01:37:44;5.93;;;3.27;;
18316;SDS011;9284;52.298;21.164;2023-06-04T01:40:35;4.53;;;2.77;;
18316;SDS011;9284;52.298;21.164;2023-06-04T01:43:17;5.07;;;2.53;;
18316;SDS011;9284;52.298;21.164;2023-06-04T01:45:54;5.17;;;2.50;;
18316;SDS011;9284;52.298;21.164;2023-06-04T01:48:49;4.30;;;2.70;;
18316;SDS011;9284;52.298;21.164;2023-06-04T01:51:24;5.37;;;2.70;;
18316;SDS011;9284;52.298;21.164;2023-06-04T01:54:00;6.30;;;2.47;;
18316;SDS011;9284;52.298;21.164;2023-06-04T01:56:30;7.60;;;3.10;;
18316;SDS011;9284;52.298;21.164;2023-06-04T01:59:10;8.67;;;2.73;;
18316;SDS011;9284;52.298;21.164;2023-06-04T02:01:55;4.33;;;2.67;;
18316;SDS011;9284;52.298;21.164;2023-06-04T02:04:29;5.03;;;2.90;;
18316;SDS011;9284;52.298;21.164;2023-06-04T02:07:06;5.10;;;3.10;;
18316;SDS011;9284;52.298;21.164;2023-06-04T02:09:37;5.53;;;2.17;;
18316;SDS011;9284;52.298;21.164;2023-06-04T02:12:27;6.13;;;2.77;;
18316;SDS011;9284;52.298;21.164;2023-06-04T02:14:58;4.67;;;2.73;;
18316;SDS011;9284;52.298;21.164;2023-06-04T02:24:29;5.47;;;2.70;;
18316;SDS011;9284;52.298;21.164;2023-06-04T02:26:57;8.27;;;2.67;;
18316;SDS011;9284;52.298;21.164;2023-06-04T02:29:26;4.80;;;2.70;;
18316;SDS011;9284;52.298;21.164;2023-06-04T02:31:56;6.93;;;2.87;;
18316;SDS011;9284;52.298;21.164;2023-06-04T02:34:24;3.73;;;2.33;;
18316;SDS011;9284;52.298;21.164;2023-06-04T02:36:52;4.07;;;2.60;;
18316;SDS011;9284;52.298;21.164;2023-06-04T02:39:23;4.90;;;2.73;;
18316;SDS011;9284;52.298;21.164;2023-06-04T02:41:53;8.83;;;3.23;;
18316;SDS011;9284;52.298;21.164;2023-06-04T02:44:27;6.77;;;2.80;;
18316;SDS011;9284;52.298;21.164;2023-06-04T02:46:57;7.50;;;2.90;;
18316;SDS011;9284;52.298;21.164;2023-06-04T02:49:25;6.13;;;2.93;;
18316;SDS011;9284;52.298;21.164;2023-06-04T02:51:56;4.80;;;2.90;;
18316;SDS011;9284;52.298;21.164;2023-06-04T02:54:24;6.00;;;3.20;;
18316;SDS011;9284;52.298;21.164;2023-06-04T02:56:57;6.40;;;2.97;;
18316;SDS011;9284;52.298;21.164;2023-06-04T02:59:38;5.03;;;2.80;;
18316;SDS011;9284;52.298;21.164;2023-06-04T03:02:07;5.43;;;2.77;;
18316;SDS011;9284;52.298;21.164;2023-06-04T03:04:35;4.90;;;3.00;;
18316;SDS011;9284;52.298;21.164;2023-06-04T03:07:06;3.87;;;2.33;;
18316;SDS011;9284;52.298;21.164;2023-06-04T03:09:40;4.67;;;3.03;;
18316;SDS011;9284;52.298;21.164;2023-06-04T03:12:14;6.07;;;2.97;;
18316;SDS011;9284;52.298;21.164;2023-06-04T03:14:45;8.40;;;2.97;;
18316;SDS011;9284;52.298;21.164;2023-06-04T03:17:13;6.10;;;3.20;;
18316;SDS011;9284;52.298;21.164;2023-06-04T03:19:44;3.93;;;2.60;;
18316;SDS011;9284;52.298;21.164;2023-06-04T03:22:15;10.23;;;3.30;;
18316;SDS011;9284;52.298;21.164;2023-06-04T03:24:50;6.43;;;2.77;;
18316;SDS011;9284;52.298;21.164;2023-06-04T03:27:22;3.73;;;2.70;;
18316;SDS011;9284;52.298;21.164;2023-06-04T03:29:53;4.80;;;2.60;;
18316;SDS011;9284;52.298;21.164;2023-06-04T03:32:22;4.10;;;2.70;;
18316;SDS011;9284;52.298;21.164;2023-06-04T03:34:53;4.67;;;2.80;;
18316;SDS011;9284;52.298;21.164;2023-06-04T03:37:27;4.20;;;2.30;;
18316;SDS011;9284;52.298;21.164;2023-06-04T03:39:56;3.97;;;2.50;;
18316;SDS011;9284;52.298;21.164;2023-06-04T03:42:26;4.10;;;2.60;;
18316;SDS011;9284;52.298;21.164;2023-06-04T03:44:55;4.93;;;2.80;;
18316;SDS011;9284;52.298;21.164;2023-06-04T03:47:25;4.13;;;2.50;;
18316;SDS011;9284;52.298;21.164;2023-06-04T03:50:00;6.70;;;2.50;;
18316;SDS011;9284;52.298;21.164;2023-06-04T03:52:32;6.43;;;2.67;;
18316;SDS011;9284;52.298;21.164;2023-06-04T03:55:00;4.43;;;2.73;;
18316;SDS011;9284;52.298;21.164;2023-06-04T03:57:32;4.83;;;2.80;;
18316;SDS011;9284;52.298;21.164;2023-06-04T04:00:01;4.60;;;2.67;;
18316;SDS011;9284;52.298;21.164;2023-06-04T04:02:38;5.37;;;2.50;;
18316;SDS011;9284;52.298;21.164;2023-06-04T04:05:19;3.72;;;2.53;;
18316;SDS011;9284;52.298;21.164;2023-06-04T04:07:49;8.35;;;2.80;;
18316;SDS011;9284;52.298;21.164;2023-06-04T04:10:22;6.72;;;2.95;;
18316;SDS011;9284;52.298;21.164;2023-06-04T04:12:52;5.45;;;2.80;;
18316;SDS011;9284;52.298;21.164;2023-06-04T04:15:23;5.40;;;2.60;;
18316;SDS011;9284;52.298;21.164;2023-06-04T04:17:52;5.03;;;2.45;;
18316;SDS011;9284;52.298;21.164;2023-06-04T04:20:23;3.72;;;2.40;;
18316;SDS011;9284;52.298;21.164;2023-06-04T04:22:59;4.32;;;2.55;;
18316;SDS011;9284;52.298;21.164;2023-06-04T04:25:29;6.25;;;2.83;;
18316;SDS011;9284;52.298;21.164;2023-06-04T04:28:02;8.15;;;3.00;;
18316;SDS011;9284;52.298;21.164;2023-06-04T04:30:34;4.03;;;2.38;;
18316;SDS011;9284;52.298;21.164;2023-06-04T04:33:07;5.75;;;2.63;;
18316;SDS011;9284;52.298;21.164;2023-06-04T04:35:42;4.28;;;2.60;;
18316;SDS011;9284;52.298;21.164;2023-06-04T04:38:14;4.68;;;2.30;;
18316;SDS011;9284;52.298;21.164;2023-06-04T04:40:49;4.05;;;2.47;;
18316;SDS011;9284;52.298;21.164;2023-06-04T04:43:29;5.88;;;2.70;;
18316;SDS011;9284;52.298;21.164;2023-06-04T04:46:04;5.63;;;2.92;;
18316;SDS011;9284;52.298;21.164;2023-06-04T04:48:32;6.85;;;2.70;;
18316;SDS011;9284;52.298;21.164;2023-06-04T04:51:01;4.07;;;2.63;;
18316;SDS011;9284;52.298;21.164;2023-06-04T04:53:32;4.18;;;2.35;;
18316;SDS011;9284;52.298;21.164;2023-06-04T04:56:03;5.28;;;2.70;;
18316;SDS011;9284;52.298;21.164;2023-06-04T04:58:44;5.60;;;2.67;;
18316;SDS011;9284;52.298;21.164;2023-06-04T05:01:12;6.00;;;2.90;;
18316;SDS011;9284;52.298;21.164;2023-06-04T05:03:43;3.65;;;2.55;;
18316;SDS011;9284;52.298;21.164;2023-06-04T05:06:14;6.07;;;2.72;;
18316;SDS011;9284;52.298;21.164;2023-06-04T05:08:49;4.32;;;2.85;;
18316;SDS011;9284;52.298;21.164;2023-06-04T05:11:18;5.35;;;2.55;;
18316;SDS011;9284;52.298;21.164;2023-06-04T05:13:49;5.97;;;2.90;;
18316;SDS011;9284;52.298;21.164;2023-06-04T05:16:19;6.78;;;2.65;;
18316;SDS011;9284;52.298;21.164;2023-06-04T05:18:49;4.97;;;2.42;;
18316;SDS011;9284;52.298;21.164;2023-06-04T05:21:22;6.68;;;2.45;;
18316;SDS011;9284;52.298;21.164;2023-06-04T05:23:59;4.85;;;2.70;;
18316;SDS011;9284;52.298;21.164;2023-06-04T05:26:31;5.07;;;2.55;;
18316;SDS011;9284;52.298;21.164;2023-06-04T05:29:07;4.13;;;2.47;;
18316;SDS011;9284;52.298;21.164;2023-06-04T05:31:39;7.55;;;3.00;;
18316;SDS011;9284;52.298;21.164;2023-06-04T05:34:10;4.82;;;2.42;;
18316;SDS011;9284;52.298;21.164;2023-06-04T05:36:43;11.93;;;3.00;;
18316;SDS011;9284;52.298;21.164;2023-06-04T05:39:12;7.57;;;2.25;;
18316;SDS011;9284;52.298;21.164;2023-06-04T05:41:57;5.00;;;2.33;;
18316;SDS011;9284;52.298;21.164;2023-06-04T05:44:27;5.07;;;2.67;;
18316;SDS011;9284;52.298;21.164;2023-06-04T05:46:55;5.15;;;2.55;;
18316;SDS011;9284;52.298;21.164;2023-06-04T05:49:24;5.00;;;2.60;;
18316;SDS011;9284;52.298;21.164;2023-06-04T05:51:56;5.20;;;2.72;;
18316;SDS011;9284;52.298;21.164;2023-06-04T05:54:24;6.60;;;2.38;;
18316;SDS011;9284;52.298;21.164;2023-06-04T05:56:54;4.97;;;2.40;;
18316;SDS011;9284;52.298;21.164;2023-06-04T05:59:24;3.30;;;2.13;;
18316;SDS011;9284;52.298;21.164;2023-06-04T06:01:54;5.10;;;1.98;;
18316;SDS011;9284;52.298;21.164;2023-06-04T06:04:23;3.63;;;2.10;;
18316;SDS011;9284;52.298;21.164;2023-06-04T06:06:52;4.50;;;2.13;;
18316;SDS011;9284;52.298;21.164;2023-06-04T06:09:20;4.15;;;1.65;;
18316;SDS011;9284;52.298;21.164;2023-06-04T06:11:49;4.82;;;1.92;;
18316;SDS011;9284;52.298;21.164;2023-06-04T06:14:18;4.85;;;1.55;;
18316;SDS011;9284;52.298;21.164;2023-06-04T06:16:47;2.90;;;1.20;;
18316;SDS011;9284;52.298;21.164;2023-06-04T06:19:21;1.33;;;1.17;;
18316;SDS011;9284;52.298;21.164;2023-06-04T06:21:52;4.22;;;1.10;;
18316;SDS011;9284;52.298;21.164;2023-06-04T06:24:20;2.67;;;1.00;;
18316;SDS011;9284;52.298;21.164;2023-06-04T06:26:48;2.25;;;1.13;;
18316;SDS011;9284;52.298;21.164;2023-06-04T06:29:17;1.67;;;1.10;;
18316;SDS011;9284;52.298;21.164;2023-06-04T06:31:47;2.83;;;1.10;;
18316;SDS011;9284;52.298;21.164;2023-06-04T06:34:15;2.40;;;1.30;;
18316;SDS011;9284;52.298;21.164;2023-06-04T06:36:45;2.58;;;1.10;;
18316;SDS011;9284;52.298;21.164;2023-06-04T06:39:14;4.10;;;0.98;;
18316;SDS011;9284;52.298;21.164;2023-06-04T06:41:42;4.90;;;1.13;;
18316;SDS011;9284;52.298;21.164;2023-06-04T06:44:16;4.25;;;1.02;;
18316;SDS011;9284;52.298;21.164;2023-06-04T06:46:45;3.28;;;1.00;;
18316;SDS011;9284;52.298;21.164;2023-06-04T06:49:15;2.45;;;1.20;;
18316;SDS011;9284;52.298;21.164;2023-06-04T06:51:45;4.03;;;1.08;;
18316;SDS011;9284;52.298;21.164;2023-06-04T06:54:14;1.52;;;0.98;;
18316;SDS011;9284;52.298;21.164;2023-06-04T06:56:43;2.55;;;0.95;;
18316;SDS011;9284;52.298;21.164;2023-06-04T06:59:12;1.52;;;0.90;;
18316;SDS011;9284;52.298;21.164;2023-06-04T07:01:44;1.88;;;0.90;;
18316;SDS011;9284;52.298;21.164;2023-06-04T07:04:13;3.42;;;1.08;;
18316;SDS011;9284;52.298;21.164;2023-06-04T07:06:42;1.73;;;1.08;;
18316;SDS011;9284;52.298;21.164;2023-06-04T07:09:14;1.67;;;0.93;;
18316;SDS011;9284;52.298;21.164;2023-06-04T07:11:42;2.70;;;0.90;;
18316;SDS011;9284;52.298;21.164;2023-06-04T07:14:11;1.30;;;0.98;;
18316;SDS011;9284;52.298;21.164;2023-06-04T07:16:39;2.35;;;0.90;;
18316;SDS011;9284;52.298;21.164;2023-06-04T07:19:08;1.35;;;0.88;;
18316;SDS011;9284;52.298;21.164;2023-06-04T07:21:39;2.95;;;0.80;;
18316;SDS011;9284;52.298;21.164;2023-06-04T07:24:08;2.22;;;0.90;;
18316;SDS011;9284;52.298;21.164;2023-06-04T07:26:38;1.23;;;0.82;;
18316;SDS011;9284;52.298;21.164;2023-06-04T07:29:06;0.90;;;0.70;;
18316;SDS011;9284;52.298;21.164;2023-06-04T07:31:35;0.82;;;0.70;;
18316;SDS011;9284;52.298;21.164;2023-06-04T07:34:03;2.47;;;0.90;;
18316;SDS011;9284;52.298;21.164;2023-06-04T07:36:32;1.00;;;0.90;;
18316;SDS011;9284;52.298;21.164;2023-06-04T07:39:00;2.78;;;1.00;;
18316;SDS011;9284;52.298;21.164;2023-06-04T07:41:29;0.98;;;0.88;;
18316;SDS011;9284;52.298;21.164;2023-06-04T07:43:59;1.20;;;0.77;;
18316;SDS011;9284;52.298;21.164;2023-06-04T07:46:28;2.35;;;0.80;;
18316;SDS011;9284;52.298;21.164;2023-06-04T07:48:56;5.47;;;0.90;;
18316;SDS011;9284;52.298;21.164;2023-06-04T07:51:24;2.03;;;1.05;;
18316;SDS011;9284;52.298;21.164;2023-06-04T07:53:53;1.50;;;0.90;;
18316;SDS011;9284;52.298;21.164;2023-06-04T07:56:22;1.50;;;0.90;;
18316;SDS011;9284;52.298;21.164;2023-06-04T07:58:50;2.28;;;0.90;;
18316;SDS011;9284;52.298;21.164;2023-06-04T08:01:20;1.90;;;1.00;;
18316;SDS011;9284;52.298;21.164;2023-06-04T08:03:50;2.00;;;0.90;;
18316;SDS011;9284;52.298;21.164;2023-06-04T08:06:18;1.45;;;0.82;;
18316;SDS011;9284;52.298;21.164;2023-06-04T08:08:47;2.60;;;0.90;;
18316;SDS011;9284;52.298;21.164;2023-06-04T08:11:16;1.55;;;0.90;;
18316;SDS011;9284;52.298;21.164;2023-06-04T08:13:44;1.38;;;0.90;;
18316;SDS011;9284;52.298;21.164;2023-06-04T08:16:13;3.20;;;1.00;;
18316;SDS011;9284;52.298;21.164;2023-06-04T08:18:43;2.33;;;0.82;;
18316;SDS011;9284;52.298;21.164;2023-06-04T08:21:11;2.17;;;0.95;;
18316;SDS011;9284;52.298;21.164;2023-06-04T08:23:40;1.92;;;0.90;;
18316;SDS011;9284;52.298;21.164;2023-06-04T08:26:08;1.65;;;0.85;;
18316;SDS011;9284;52.298;21.164;2023-06-04T08:28:37;2.35;;;1.00;;
18316;SDS011;9284;52.298;21.164;2023-06-04T08:31:06;1.95;;;0.70;;
18316;SDS011;9284;52.298;21.164;2023-06-04T08:33:35;1.00;;;0.80;;
18316;SDS011;9284;52.298;21.164;2023-06-04T08:36:05;1.83;;;0.90;;
18316;SDS011;9284;52.298;21.164;2023-06-04T08:38:33;2.45;;;1.10;;
18316;SDS011;9284;52.298;21.164;2023-06-04T08:41:02;3.20;;;0.80;;
18316;SDS011;9284;52.298;21.164;2023-06-04T08:43:37;2.35;;;0.90;;
18316;SDS011;9284;52.298;21.164;2023-06-04T08:46:09;1.10;;;0.70;;
18316;SDS011;9284;52.298;21.164;2023-06-04T08:48:39;1.45;;;0.70;;
18316;SDS011;9284;52.298;21.164;2023-06-04T08:51:08;0.63;;;0.60;;
18316;SDS011;9284;52.298;21.164;2023-06-04T08:53:38;1.05;;;0.80;;
18316;SDS011;9284;52.298;21.164;2023-06-04T08:56:06;2.28;;;0.90;;
18316;SDS011;9284;52.298;21.164;2023-06-04T08:58:35;1.55;;;0.70;;
18316;SDS011;9284;52.298;21.164;2023-06-04T09:01:05;0.95;;;0.80;;
18316;SDS011;9284;52.298;21.164;2023-06-04T09:03:35;1.58;;;0.90;;
18316;SDS011;9284;52.298;21.164;2023-06-04T09:06:05;2.38;;;0.75;;
18316;SDS011;9284;52.298;21.164;2023-06-04T09:08:38;1.60;;;0.90;;
18316;SDS011;9284;52.298;21.164;2023-06-04T09:11:13;2.65;;;0.93;;
18316;SDS011;9284;52.298;21.164;2023-06-04T09:13:45;2.03;;;0.80;;
18316;SDS011;9284;52.298;21.164;2023-06-04T09:16:33;2.33;;;0.98;;
18316;SDS011;9284;52.298;21.164;2023-06-04T09:19:19;3.38;;;0.90;;
18316;SDS011;9284;52.298;21.164;2023-06-04T09:21:49;0.77;;;0.70;;
18316;SDS011;9284;52.298;21.164;2023-06-04T09:24:37;1.70;;;0.80;;
18316;SDS011;9284;52.298;21.164;2023-06-04T09:27:11;1.33;;;0.77;;
18316;SDS011;9284;52.298;21.164;2023-06-04T09:29:49;1.52;;;0.80;;
18316;SDS011;9284;52.298;21.164;2023-06-04T09:32:22;1.08;;;0.75;;
18316;SDS011;9284;52.298;21.164;2023-06-04T09:34:54;2.17;;;0.90;;
18316;SDS011;9284;52.298;21.164;2023-06-04T09:37:23;1.17;;;0.80;;
18316;SDS011;9284;52.298;21.164;2023-06-04T09:39:55;2.40;;;0.80;;
18316;SDS011;9284;52.298;21.164;2023-06-04T09:42:23;3.20;;;0.80;;
18316;SDS011;9284;52.298;21.164;2023-06-04T09:44:52;1.30;;;0.80;;
18316;SDS011;9284;52.298;21.164;2023-06-04T09:47:20;2.33;;;0.98;;
18316;SDS011;9284;52.298;21.164;2023-06-04T09:49:49;6.72;;;1.05;;
18316;SDS011;9284;52.298;21.164;2023-06-04T09:52:19;1.27;;;0.80;;
18316;SDS011;9284;52.298;21.164;2023-06-04T09:54:48;2.95;;;1.10;;
18316;SDS011;9284;52.298;21.164;2023-06-04T09:57:18;0.95;;;0.82;;
18316;SDS011;9284;52.298;21.164;2023-06-04T09:59:48;2.13;;;0.70;;
18316;SDS011;9284;52.298;21.164;2023-06-04T10:02:18;2.30;;;1.00;;
18316;SDS011;9284;52.298;21.164;2023-06-04T10:04:48;1.77;;;0.95;;
18316;SDS011;9284;52.298;21.164;2023-06-04T10:07:21;2.63;;;0.90;;
18316;SDS011;9284;52.298;21.164;2023-06-04T10:09:51;1.52;;;0.98;;
18316;SDS011;9284;52.298;21.164;2023-06-04T10:12:22;2.33;;;0.90;;
18316;SDS011;9284;52.298;21.164;2023-06-04T10:14:54;1.10;;;0.82;;
18316;SDS011;9284;52.298;21.164;2023-06-04T10:17:26;5.15;;;0.98;;
18316;SDS011;9284;52.298;21.164;2023-06-04T10:19:57;1.92;;;0.60;;
18316;SDS011;9284;52.298;21.164;2023-06-04T10:22:29;2.50;;;0.60;;
18316;SDS011;9284;52.298;21.164;2023-06-04T10:24:58;1.30;;;0.85;;
18316;SDS011;9284;52.298;21.164;2023-06-04T10:27:29;1.10;;;0.95;;
18316;SDS011;9284;52.298;21.164;2023-06-04T10:29:58;1.30;;;0.80;;
18316;SDS011;9284;52.298;21.164;2023-06-04T10:32:27;1.27;;;0.80;;
18316;SDS011;9284;52.298;21.164;2023-06-04T10:34:56;1.45;;;0.80;;
18316;SDS011;9284;52.298;21.164;2023-06-04T10:37:25;3.40;;;0.93;;
18316;SDS011;9284;52.298;21.164;2023-06-04T10:39:57;1.98;;;0.60;;
18316;SDS011;9284;52.298;21.164;2023-06-04T10:42:26;1.45;;;0.85;;
18316;SDS011;9284;52.298;21.164;2023-06-04T10:45:09;2.92;;;0.80;;
18316;SDS011;9284;52.298;21.164;2023-06-04T10:47:38;0.85;;;0.77;;
18316;SDS011;9284;52.298;21.164;2023-06-04T10:50:09;4.95;;;0.77;;
18316;SDS011;9284;52.298;21.164;2023-06-04T10:52:38;2.22;;;0.68;;
18316;SDS011;9284;52.298;21.164;2023-06-04T10:55:18;2.92;;;1.42;;
18316;SDS011;9284;52.298;21.164;2023-06-04T10:57:52;0.90;;;0.65;;
18316;SDS011;9284;52.298;21.164;2023-06-04T11:00:21;1.92;;;0.80;;
18316;SDS011;9284;52.298;21.164;2023-06-04T11:02:51;1.77;;;0.88;;
18316;SDS011;9284;52.298;21.164;2023-06-04T11:05:20;1.13;;;0.70;;
18316;SDS011;9284;52.298;21.164;2023-06-04T11:07:49;0.73;;;0.73;;
18316;SDS011;9284;52.298;21.164;2023-06-04T11:10:18;1.90;;;0.90;;
18316;SDS011;9284;52.298;21.164;2023-06-04T11:13:00;2.72;;;0.80;;
18316;SDS011;9284;52.298;21.164;2023-06-04T11:15:37;2.97;;;0.90;;
18316;SDS011;9284;52.298;21.164;2023-06-04T11:18:08;2.38;;;0.75;;
18316;SDS011;9284;52.298;21.164;2023-06-04T11:20:41;0.88;;;0.70;;
18316;SDS011;9284;52.298;21.164;2023-06-04T11:23:11;2.45;;;1.05;;
18316;SDS011;9284;52.298;21.164;2023-06-04T11:26:03;0.85;;;0.77;;
18316;SDS011;9284;52.298;21.164;2023-06-04T11:28:37;1.05;;;0.60;;
18316;SDS011;9284;52.298;21.164;2023-06-04T11:31:18;1.67;;;0.90;;
18316;SDS011;9284;52.298;21.164;2023-06-04T11:33:47;1.50;;;0.70;;
18316;SDS011;9284;52.298;21.164;2023-06-04T11:36:22;0.75;;;0.75;;
18316;SDS011;9284;52.298;21.164;2023-06-04T11:38:57;2.10;;;0.80;;
18316;SDS011;9284;52.298;21.164;2023-06-04T11:41:40;2.75;;;0.60;;
18316;SDS011;9284;52.298;21.164;2023-06-04T11:47:24;1.73;;;0.85;;
18316;SDS011;9284;52.298;21.164;2023-06-04T11:50:17;1.30;;;0.77;;
18316;SDS011;9284;52.298;21.164;2023-06-04T11:53:10;2.00;;;0.88;;
18316;SDS011;9284;52.298;21.164;2023-06-04T11:56:38;2.83;;;0.75;;
18316;SDS011;9284;52.298;21.164;2023-06-04T11:59:32;3.47;;;0.82;;
18316;SDS011;9284;52.298;21.164;2023-06-04T12:02:26;1.13;;;0.80;;
18316;SDS011;9284;52.298;21.164;2023-06-04T12:05:43;2.53;;;0.70;;
18316;SDS011;9284;52.298;21.164;2023-06-04T12:08:58;1.20;;;0.80;;
18316;SDS011;9284;52.298;21.164;2023-06-04T12:12:27;1.77;;;0.75;;
18316;SDS011;9284;52.298;21.164;2023-06-04T12:15:43;1.95;;;0.95;;
18316;SDS011;9284;52.298;21.164;2023-06-04T12:22:23;0.93;;;0.70;;
18316;SDS011;9284;52.298;21.164;2023-06-04T12:26:21;1.35;;;0.60;;
18316;SDS011;9284;52.298;21.164;2023-06-04T12:29:44;1.00;;;0.80;;
18316;SDS011;9284;52.298;21.164;2023-06-04T12:33:20;2.67;;;0.80;;
18316;SDS011;9284;52.298;21.164;2023-06-04T12:35:53;1.15;;;0.82;;
18316;SDS011;9284;52.298;21.164;2023-06-04T12:38:29;1.00;;;0.80;;
18316;SDS011;9284;52.298;21.164;2023-06-04T12:41:29;2.58;;;0.80;;
18316;SDS011;9284;52.298;21.164;2023-06-04T12:44:17;2.28;;;0.93;;
18316;SDS011;9284;52.298;21.164;2023-06-04T12:47:09;0.75;;;0.60;;
18316;SDS011;9284;52.298;21.164;2023-06-04T12:49:44;1.17;;;0.82;;
18316;SDS011;9284;52.298;21.164;2023-06-04T12:52:26;0.98;;;0.50;;
18316;SDS011;9284;52.298;21.164;2023-06-04T12:55:11;2.58;;;0.90;;
18316;SDS011;9284;52.298;21.164;2023-06-04T12:57:59;2.35;;;0.80;;
18316;SDS011;9284;52.298;21.164;2023-06-04T13:00:40;1.52;;;0.90;;
18316;SDS011;9284;52.298;21.164;2023-06-04T13:03:36;1.75;;;0.80;;
18316;SDS011;9284;52.298;21.164;2023-06-04T13:06:30;3.42;;;1.00;;
18316;SDS011;9284;52.298;21.164;2023-06-04T13:10:01;0.90;;;0.70;;
18316;SDS011;9284;52.298;21.164;2023-06-04T13:17:01;3.20;;;0.70;;
18316;SDS011;9284;52.298;21.164;2023-06-04T13:20:35;3.38;;;1.00;;
18316;SDS011;9284;52.298;21.164;2023-06-04T13:30:08;2.05;;;0.77;;
18316;SDS011;9284;52.298;21.164;2023-06-04T13:32:45;2.65;;;0.85;;
18316;SDS011;9284;52.298;21.164;2023-06-04T13:35:17;0.90;;;0.70;;
18316;SDS011;9284;52.298;21.164;2023-06-04T13:37:57;3.28;;;0.75;;
18316;SDS011;9284;52.298;21.164;2023-06-04T13:40:30;5.05;;;0.90;;
18316;SDS011;9284;52.298;21.164;2023-06-04T13:43:05;4.35;;;1.08;;
18316;SDS011;9284;52.298;21.164;2023-06-04T13:45:37;1.25;;;0.70;;
18316;SDS011;9284;52.298;21.164;2023-06-04T13:48:15;2.25;;;0.80;;
18316;SDS011;9284;52.298;21.164;2023-06-04T13:50:45;1.35;;;0.80;;
18316;SDS011;9284;52.298;21.164;2023-06-04T13:53:19;2.67;;;0.90;;
18316;SDS011;9284;52.298;21.164;2023-06-04T13:55:48;2.35;;;0.90;;
18316;SDS011;9284;52.298;21.164;2023-06-04T14:01:24;4.90;;;0.90;;
18316;SDS011;9284;52.298;21.164;2023-06-04T14:03:53;3.22;;;1.02;;
18316;SDS011;9284;52.298;21.164;2023-06-04T14:06:28;3.60;;;0.80;;
18316;SDS011;9284;52.298;21.164;2023-06-04T14:08:59;2.17;;;0.70;;
18316;SDS011;9284;52.298;21.164;2023-06-04T14:11:38;1.60;;;0.80;;
18316;SDS011;9284;52.298;21.164;2023-06-04T14:14:17;2.72;;;0.95;;
18316;SDS011;9284;52.298;21.164;2023-06-04T14:16:54;1.75;;;0.80;;
18316;SDS011;9284;52.298;21.164;2023-06-04T14:19:24;1.95;;;0.77;;
18316;SDS011;9284;52.298;21.164;2023-06-04T14:22:07;3.35;;;1.00;;
18316;SDS011;9284;52.298;21.164;2023-06-04T14:24:48;3.15;;;1.00;;
18316;SDS011;9284;52.298;21.164;2023-06-04T14:27:17;2.92;;;0.75;;
18316;SDS011;9284;52.298;21.164;2023-06-04T14:29:52;2.47;;;0.80;;
18316;SDS011;9284;52.298;21.164;2023-06-04T14:32:29;2.05;;;0.73;;
18316;SDS011;9284;52.298;21.164;2023-06-04T14:35:35;1.40;;;0.82;;
18316;SDS011;9284;52.298;21.164;2023-06-04T14:38:05;1.42;;;0.70;;
18316;SDS011;9284;52.298;21.164;2023-06-04T14:40:41;4.93;;;1.10;;
18316;SDS011;9284;52.298;21.164;2023-06-04T14:43:14;2.60;;;1.00;;
18316;SDS011;9284;52.298;21.164;2023-06-04T14:45:48;3.83;;;0.90;;
18316;SDS011;9284;52.298;21.164;2023-06-04T14:48:23;5.88;;;1.20;;
18316;SDS011;9284;52.298;21.164;2023-06-04T14:50:55;1.50;;;1.10;;
18316;SDS011;9284;52.298;21.164;2023-06-04T14:53:23;1.85;;;1.00;;
18316;SDS011;9284;52.298;21.164;2023-06-04T14:55:56;2.38;;;0.90;;
18316;SDS011;9284;52.298;21.164;2023-06-04T14:58:25;3.92;;;1.10;;
18316;SDS011;9284;52.298;21.164;2023-06-04T15:01:01;2.17;;;0.93;;
18316;SDS011;9284;52.298;21.164;2023-06-04T15:03:37;1.77;;;1.00;;
18316;SDS011;9284;52.298;21.164;2023-06-04T15:06:08;0.85;;;0.70;;
18316;SDS011;9284;52.298;21.164;2023-06-04T15:08:51;2.67;;;1.25;;
18316;SDS011;9284;52.298;21.164;2023-06-04T15:11:24;1.05;;;0.95;;
18316;SDS011;9284;52.298;21.164;2023-06-04T15:13:55;1.98;;;1.05;;
18316;SDS011;9284;52.298;21.164;2023-06-04T15:16:25;4.45;;;1.00;;
18316;SDS011;9284;52.298;21.164;2023-06-04T15:18:57;1.63;;;0.85;;
18316;SDS011;9284;52.298;21.164;2023-06-04T15:21:31;2.55;;;0.98;;
18316;SDS011;9284;52.298;21.164;2023-06-04T15:24:01;1.38;;;0.88;;
18316;SDS011;9284;52.298;21.164;2023-06-04T15:26:32;1.55;;;0.80;;
18316;SDS011;9284;52.298;21.164;2023-06-04T15:29:04;1.30;;;0.82;;
18316;SDS011;9284;52.298;21.164;2023-06-04T15:31:34;2.88;;;0.93;;
18316;SDS011;9284;52.298;21.164;2023-06-04T15:34:08;1.05;;;0.90;;
18316;SDS011;9284;52.298;21.164;2023-06-04T15:36:41;1.70;;;1.00;;
18316;SDS011;9284;52.298;21.164;2023-06-04T15:39:14;3.13;;;1.00;;
18316;SDS011;9284;52.298;21.164;2023-06-04T15:41:52;3.22;;;0.98;;
18316;SDS011;9284;52.298;21.164;2023-06-04T15:44:20;2.45;;;0.93;;
18316;SDS011;9284;52.298;21.164;2023-06-04T15:46:54;0.80;;;0.80;;
18316;SDS011;9284;52.298;21.164;2023-06-04T15:49:34;1.85;;;0.95;;
18316;SDS011;9284;52.298;21.164;2023-06-04T15:52:07;1.27;;;0.80;;
18316;SDS011;9284;52.298;21.164;2023-06-04T15:54:54;3.90;;;1.00;;
18316;SDS011;9284;52.298;21.164;2023-06-04T15:57:36;1.15;;;0.85;;
18316;SDS011;9284;52.298;21.164;2023-06-04T16:00:07;0.88;;;0.80;;
18316;SDS011;9284;52.298;21.164;2023-06-04T16:02:39;1.02;;;0.90;;
18316;SDS011;9284;52.298;21.164;2023-06-04T16:05:21;1.00;;;0.90;;
18316;SDS011;9284;52.298;21.164;2023-06-04T16:07:58;3.75;;;0.90;;
18316;SDS011;9284;52.298;21.164;2023-06-04T16:10:29;4.35;;;0.95;;
18316;SDS011;9284;52.298;21.164;2023-06-04T16:13:07;2.28;;;1.00;;
18316;SDS011;9284;52.298;21.164;2023-06-04T16:15:44;1.20;;;1.00;;